createdAt,value
2023-08-29T00:01:27.654Z,32.79
2023-08-29T00:03:59.477Z,33.30
2023-08-29T00:06:28.256Z,32.97
2023-08-29T00:08:56.818Z,32.75
2023-08-29T00:11:25.120Z,32.67
2023-08-29T00:13:54.692Z,32.77
2023-08-29T00:16:23.710Z,32.62
2023-08-29T00:18:52.325Z,32.67
2023-08-29T00:21:21.860Z,33.25
2023-08-29T00:23:50.812Z,32.65
2023-08-29T00:26:19.119Z,32.58
2023-08-29T00:28:48.180Z,32.61
2023-08-29T00:31:16.543Z,32.59
2023-08-29T00:33:45.331Z,32.70
2023-08-29T00:36:13.676Z,32.46
2023-08-29T00:38:43.848Z,32.98
2023-08-29T00:41:12.327Z,32.52
2023-08-29T00:43:41.079Z,32.59
2023-08-29T00:46:09.395Z,32.64
2023-08-29T00:48:38.042Z,32.47
2023-08-29T00:51:06.573Z,32.55
2023-08-29T00:53:36.423Z,32.78
2023-08-29T00:56:06.921Z,33.22
2023-08-29T00:58:36.322Z,32.97
2023-08-29T01:01:04.854Z,32.74
2023-08-29T01:03:33.606Z,32.65
2023-08-29T01:06:01.844Z,32.52
2023-08-29T01:08:30.452Z,32.57
2023-08-29T01:11:04.753Z,33.35
2023-08-29T01:13:39.300Z,33.36
2023-08-29T01:16:10.632Z,33.39
2023-08-29T01:18:40.157Z,33.08
2023-08-29T01:21:17.729Z,33.48
2023-08-29T01:23:51.489Z,33.15
2023-08-29T01:26:23.693Z,32.78
2023-08-29T01:28:52.333Z,32.17
2023-08-29T01:31:22.495Z,32.50
2023-08-29T01:33:51.440Z,32.02
2023-08-29T01:36:19.616Z,31.82
2023-08-29T01:38:48.138Z,31.72
2023-08-29T01:41:16.345Z,31.92
2023-08-29T01:43:46.406Z,32.00
2023-08-29T01:46:14.783Z,31.58
2023-08-29T01:48:43.508Z,31.73
2023-08-29T01:51:11.976Z,31.67
2023-08-29T01:53:40.689Z,31.69
2023-08-29T01:56:10.593Z,32.23
2023-08-29T01:58:39.956Z,32.18
2023-08-29T02:01:22.681Z,32.39
2023-08-29T02:03:52.394Z,31.94
2023-08-29T02:06:21.200Z,32.15
2023-08-29T02:08:49.840Z,31.96
2023-08-29T02:11:18.058Z,31.92
2023-08-29T02:13:46.547Z,31.97
2023-08-29T02:16:16.198Z,32.61
2023-08-29T02:18:44.627Z,32.00
2023-08-29T02:21:12.780Z,32.12
2023-08-29T02:23:41.385Z,32.18
2023-08-29T02:26:09.574Z,32.17
2023-08-29T02:28:39.209Z,32.67
2023-08-29T02:31:08.216Z,32.54
2023-08-29T02:33:40.448Z,32.95
2023-08-29T02:36:09.093Z,32.49
2023-08-29T02:38:37.901Z,32.33
2023-08-29T02:41:06.529Z,32.23
2023-08-29T02:43:35.041Z,32.28
2023-08-29T02:46:03.572Z,32.38
2023-08-29T02:48:32.113Z,32.42
2023-08-29T02:51:01.649Z,33.09
2023-08-29T02:53:31.115Z,32.59
2023-08-29T02:55:59.414Z,32.62
2023-08-29T02:58:28.724Z,32.71
2023-08-29T03:00:58.643Z,32.77
2023-08-29T03:03:27.812Z,32.59
2023-08-29T03:05:56.840Z,32.75
2023-08-29T03:08:27.681Z,33.25
2023-08-29T03:10:56.371Z,32.77
2023-08-29T03:13:25.048Z,32.42
2023-08-29T03:15:53.572Z,32.58
2023-08-29T03:18:22.332Z,32.54
2023-08-29T03:20:50.816Z,32.69
2023-08-29T03:23:19.447Z,33.01
2023-08-29T03:25:49.229Z,33.36
2023-08-29T03:28:18.092Z,33.10
2023-08-29T03:30:46.395Z,33.05
2023-08-29T03:33:15.005Z,33.06
2023-08-29T03:35:43.445Z,32.64
2023-08-29T03:38:12.219Z,32.46
2023-08-29T03:40:40.618Z,32.31
2023-08-29T03:43:10.651Z,32.84
2023-08-29T03:45:38.998Z,32.12
2023-08-29T03:48:19.445Z,32.23
2023-08-29T03:50:52.501Z,32.11
2023-08-29T03:53:21.734Z,32.24
2023-08-29T03:55:50.138Z,32.43
2023-08-29T03:58:20.057Z,33.11
2023-08-29T04:00:48.322Z,32.55
2023-08-29T04:03:17.298Z,32.48
2023-08-29T04:05:45.946Z,32.43
2023-08-29T04:08:14.481Z,32.50
2023-08-29T04:10:43.485Z,32.83
2023-08-29T04:13:12.446Z,32.41
2023-08-29T04:15:42.420Z,33.05
2023-08-29T04:18:11.102Z,32.40
2023-08-29T04:20:39.438Z,32.38
2023-08-29T04:23:11.777Z,32.09
2023-08-29T04:25:40.128Z,32.20
2023-08-29T04:28:11.243Z,32.14
2023-08-29T04:30:39.475Z,32.09
2023-08-29T04:33:09.672Z,32.65
2023-08-29T04:35:38.050Z,32.13
2023-08-29T04:38:07.102Z,32.13
2023-08-29T04:40:35.565Z,32.13
2023-08-29T04:43:04.208Z,32.06
2023-08-29T04:45:33.960Z,32.11
2023-08-29T04:48:02.642Z,32.24
2023-08-29T04:50:32.300Z,32.90
2023-08-29T04:53:00.901Z,32.39
2023-08-29T04:55:29.149Z,32.33
2023-08-29T04:57:58.143Z,32.26
2023-08-29T05:00:26.418Z,32.04
2023-08-29T05:02:55.056Z,31.64
2023-08-29T05:05:23.930Z,31.78
2023-08-29T05:07:54.221Z,32.35
2023-08-29T05:10:22.844Z,31.82
2023-08-29T05:12:51.591Z,31.95
2023-08-29T05:15:19.840Z,32.08
2023-08-29T05:17:48.755Z,32.50
2023-08-29T05:20:17.177Z,32.68
2023-08-29T05:22:45.996Z,32.88
2023-08-29T05:25:16.014Z,33.48
2023-08-29T05:27:44.732Z,32.96
2023-08-29T05:30:14.536Z,33.00
2023-08-29T05:32:43.253Z,32.97
2023-08-29T05:35:11.552Z,33.11
2023-08-29T05:37:40.076Z,33.16
2023-08-29T05:40:10.422Z,33.43
2023-08-29T05:42:41.367Z,33.13
2023-08-29T05:45:10.600Z,32.77
2023-08-29T05:47:39.231Z,32.54
2023-08-29T05:50:08.948Z,32.92
2023-08-29T05:52:37.477Z,32.07
2023-08-29T05:55:06.704Z,32.36
2023-08-29T05:57:35.280Z,32.18
2023-08-29T06:00:08.928Z,32.96
2023-08-29T06:02:37.550Z,32.44
2023-08-29T06:05:08.115Z,32.69
2023-08-29T06:07:36.770Z,32.31
2023-08-29T06:10:05.396Z,32.16
2023-08-29T06:12:33.960Z,31.86
2023-08-29T06:15:02.237Z,31.91
2023-08-29T06:17:32.340Z,32.72
2023-08-29T06:20:00.660Z,32.28
2023-08-29T06:22:30.486Z,32.42
2023-08-29T06:24:58.771Z,32.67
2023-08-29T06:27:27.403Z,31.96
2023-08-29T06:29:55.719Z,30.54
2023-08-29T06:32:24.337Z,30.12
2023-08-29T06:34:54.314Z,30.35
2023-08-29T06:37:22.968Z,30.19
2023-08-29T06:39:52.512Z,29.78
2023-08-29T06:42:21.077Z,29.58
2023-08-29T06:44:49.694Z,30.05
2023-08-29T06:47:18.259Z,29.26
2023-08-29T06:49:46.891Z,29.17
2023-08-29T06:52:17.254Z,29.42
2023-08-29T06:54:45.871Z,29.24
2023-08-29T06:57:14.576Z,29.58
2023-08-29T06:59:42.910Z,30.27
2023-08-29T07:02:11.666Z,30.21
2023-08-29T07:04:39.851Z,29.36
2023-08-29T07:07:08.640Z,28.13
2023-08-29T07:09:38.688Z,28.59
2023-08-29T07:12:08.242Z,28.30
2023-08-29T07:14:36.786Z,27.78
2023-08-29T07:17:10.144Z,29.17
2023-08-29T07:19:42.430Z,28.96
2023-08-29T07:22:23.537Z,29.29
2023-08-29T07:24:54.167Z,30.94
2023-08-29T07:27:22.853Z,30.80
2023-08-29T07:29:51.300Z,31.60
2023-08-29T07:32:20.138Z,32.04
2023-08-29T07:34:48.401Z,32.57
2023-08-29T07:37:17.213Z,33.05
2023-08-29T07:39:45.586Z,34.21
2023-08-29T07:42:15.727Z,35.98
2023-08-29T07:44:44.087Z,36.31
2023-08-29T07:47:15.460Z,38.09
2023-08-29T07:49:44.721Z,38.63
2023-08-29T07:52:13.403Z,40.03
2023-08-29T07:54:43.014Z,41.07
2023-08-29T07:57:12.214Z,39.98
2023-08-29T07:59:41.989Z,39.29
2023-08-29T08:02:10.585Z,37.44
2023-08-29T08:04:39.207Z,37.10
2023-08-29T08:07:08.055Z,37.14
2023-08-29T08:09:36.396Z,37.74
2023-08-29T08:12:04.974Z,37.84
2023-08-29T08:14:33.910Z,37.94
2023-08-29T08:17:03.910Z,39.02
2023-08-29T08:19:32.184Z,38.85
2023-08-29T08:22:00.952Z,39.18
2023-08-29T08:24:29.886Z,39.41
2023-08-29T08:26:58.470Z,39.57
2023-08-29T08:29:26.822Z,39.71
2023-08-29T08:31:55.523Z,39.75
2023-08-29T08:34:25.221Z,40.55
2023-08-29T08:36:55.112Z,40.12
2023-08-29T08:39:23.641Z,40.37
2023-08-29T08:41:53.815Z,41.12
2023-08-29T08:44:24.904Z,41.14
2023-08-29T08:46:54.662Z,41.09
2023-08-29T08:49:22.957Z,40.88
2023-08-29T08:51:52.881Z,42.03
2023-08-29T08:54:21.480Z,42.21
2023-08-29T08:56:50.670Z,42.66
2023-08-29T08:59:18.896Z,41.94
2023-08-29T09:01:47.849Z,41.74
2023-08-29T09:04:16.194Z,41.22
2023-08-29T09:06:44.795Z,40.71
2023-08-29T09:09:23.930Z,41.18
2023-08-29T09:11:56.990Z,40.79
2023-08-29T09:14:27.205Z,40.27
2023-08-29T09:16:56.297Z,39.63
2023-08-29T09:19:24.863Z,39.37
2023-08-29T09:21:53.922Z,39.36
2023-08-29T09:24:34.332Z,40.51
2023-08-29T09:27:07.116Z,40.35
2023-08-29T09:29:36.426Z,40.15
2023-08-29T09:32:14.099Z,41.24
2023-08-29T09:34:42.659Z,40.57
2023-08-29T09:37:13.444Z,41.06
2023-08-29T09:39:43.224Z,40.92
2023-08-29T09:42:12.851Z,40.69
2023-08-29T09:44:42.847Z,40.67
2023-08-29T09:47:12.469Z,40.11
2023-08-29T09:49:44.901Z,40.14
2023-08-29T09:52:14.937Z,39.92
2023-08-29T09:54:46.670Z,39.86
2023-08-29T09:57:16.599Z,39.66
2023-08-29T09:59:46.115Z,39.73
2023-08-29T10:02:16.127Z,40.05
2023-08-29T10:04:47.014Z,40.18
2023-08-29T10:07:17.980Z,40.46
2023-08-29T10:09:48.054Z,40.88
2023-08-29T10:12:16.834Z,40.93
2023-08-29T10:14:45.973Z,42.17
2023-08-29T10:17:25.859Z,42.38
2023-08-29T10:20:00.854Z,43.00
2023-08-29T10:22:31.018Z,43.81
2023-08-29T10:25:02.295Z,44.51
2023-08-29T10:27:30.988Z,43.94
2023-08-29T10:29:59.356Z,43.93
2023-08-29T10:32:28.620Z,44.43
2023-08-29T10:34:59.054Z,44.05
2023-08-29T10:37:28.131Z,43.80
2023-08-29T10:39:56.512Z,42.99
2023-08-29T10:42:26.590Z,43.12
2023-08-29T10:44:56.521Z,42.28
2023-08-29T10:47:28.092Z,42.33
2023-08-29T10:50:01.749Z,42.53
2023-08-29T10:52:38.822Z,42.69
2023-08-29T10:55:20.305Z,42.19
2023-08-29T10:57:51.066Z,42.24
2023-08-29T11:00:21.400Z,41.93
2023-08-29T11:02:50.343Z,41.58
2023-08-29T11:05:20.909Z,41.54
2023-08-29T11:07:49.416Z,41.32
2023-08-29T11:10:20.278Z,41.95
2023-08-29T11:13:07.678Z,42.21
2023-08-29T11:16:11.216Z,41.94
2023-08-29T11:18:39.797Z,40.39
2023-08-29T11:21:09.426Z,40.54
2023-08-29T11:23:42.059Z,40.83
2023-08-29T11:26:10.881Z,39.94
2023-08-29T11:28:46.678Z,40.62
2023-08-29T11:31:15.172Z,39.79
2023-08-29T11:33:43.961Z,39.79
2023-08-29T11:36:12.198Z,39.60
2023-08-29T11:38:40.959Z,39.59
2023-08-29T11:41:17.045Z,39.36
2023-08-29T11:44:33.412Z,39.73
2023-08-29T11:46:47.897Z,39.08
2023-08-29T11:49:17.413Z,39.27
2023-08-29T11:51:46.126Z,39.03
2023-08-29T11:54:39.651Z,40.11
2023-08-29T11:57:08.901Z,38.51
2023-08-29T11:59:41.381Z,39.18
2023-08-29T12:02:11.279Z,38.57
2023-08-29T12:04:41.654Z,39.00
2023-08-29T12:07:11.595Z,38.96
2023-08-29T12:09:42.846Z,38.95
2023-08-29T12:12:12.456Z,39.21
2023-08-29T12:14:54.841Z,39.93
2023-08-29T12:17:24.258Z,38.72
2023-08-29T12:19:52.928Z,38.35
2023-08-29T12:22:31.020Z,39.17
2023-08-29T12:24:59.849Z,37.79
2023-08-29T12:27:29.079Z,37.59
2023-08-29T12:29:59.054Z,38.16
2023-08-29T12:32:28.352Z,37.71
2023-08-29T12:34:57.828Z,37.95
2023-08-29T12:37:26.929Z,37.78
2023-08-29T12:39:55.581Z,37.30
2023-08-29T12:42:23.871Z,37.14
2023-08-29T12:44:52.810Z,37.17
2023-08-29T12:47:22.415Z,37.70
2023-08-29T12:49:51.358Z,37.35
2023-08-29T12:52:20.537Z,37.34
2023-08-29T12:54:49.139Z,37.09
2023-08-29T12:57:17.313Z,37.08
2023-08-29T12:59:46.513Z,37.11
2023-08-29T13:02:14.922Z,37.10
2023-08-29T13:04:45.095Z,37.69
2023-08-29T13:07:13.386Z,36.96
2023-08-29T13:09:42.861Z,37.47
2023-08-29T13:12:11.217Z,37.06
2023-08-29T13:14:40.461Z,37.19
2023-08-29T13:17:11.817Z,37.49
2023-08-29T13:19:41.369Z,37.23
2023-08-29T13:22:11.562Z,37.97
2023-08-29T13:24:40.156Z,37.58
2023-08-29T13:27:09.807Z,38.09
2023-08-29T13:29:38.544Z,37.46
2023-08-29T13:32:07.345Z,37.47
2023-08-29T13:34:35.878Z,37.17
2023-08-29T13:37:04.082Z,37.00
2023-08-29T13:39:34.170Z,37.54
2023-08-29T13:42:02.504Z,36.85
2023-08-29T13:44:31.229Z,37.07
2023-08-29T13:46:59.787Z,37.25
2023-08-29T13:49:28.315Z,37.31
2023-08-29T13:52:00.865Z,37.36
2023-08-29T13:54:31.946Z,37.28
2023-08-29T13:57:01.695Z,37.81
2023-08-29T13:59:30.324Z,37.14
2023-08-29T14:01:58.610Z,37.09
2023-08-29T14:04:27.635Z,37.10
2023-08-29T14:06:56.053Z,37.03
2023-08-29T14:09:24.785Z,37.03
2023-08-29T14:11:52.973Z,36.72
2023-08-29T14:14:25.245Z,37.26
2023-08-29T14:16:54.214Z,36.54
2023-08-29T14:19:23.198Z,36.75
2023-08-29T14:21:51.579Z,36.58
2023-08-29T14:24:20.053Z,36.26
2023-08-29T14:26:48.455Z,36.42
2023-08-29T14:29:17.085Z,36.43
2023-08-29T14:31:46.983Z,37.00
2023-08-29T14:34:16.174Z,36.16
2023-08-29T14:36:44.610Z,36.42
2023-08-29T14:39:13.315Z,36.41
2023-08-29T14:41:43.804Z,37.06
2023-08-29T14:44:12.359Z,36.72
2023-08-29T14:46:42.490Z,36.90
2023-08-29T14:49:12.545Z,37.85
2023-08-29T14:51:40.907Z,37.44
2023-08-29T14:54:09.622Z,37.70
2023-08-29T14:56:38.222Z,37.90
2023-08-29T14:59:06.974Z,37.93
2023-08-29T15:01:37.935Z,37.75
2023-08-29T15:04:06.675Z,37.66
2023-08-29T15:06:36.920Z,38.39
2023-08-29T15:09:07.916Z,38.00
2023-08-29T15:11:37.383Z,37.87
2023-08-29T15:14:06.758Z,37.77
2023-08-29T15:16:36.403Z,37.66
2023-08-29T15:19:05.290Z,37.60
2023-08-29T15:21:33.545Z,37.41
2023-08-29T15:24:03.962Z,37.89
2023-08-29T15:26:32.610Z,37.39
2023-08-29T15:29:01.152Z,37.26
2023-08-29T15:31:29.370Z,37.17
2023-08-29T15:33:57.972Z,37.10
2023-08-29T15:36:26.583Z,37.01
2023-08-29T15:38:55.056Z,36.86
2023-08-29T15:41:25.296Z,37.34
2023-08-29T15:43:54.177Z,36.66
2023-08-29T15:46:22.677Z,36.57
2023-08-29T15:48:51.440Z,36.50
2023-08-29T15:51:20.894Z,36.37
2023-08-29T15:53:49.572Z,36.14
2023-08-29T15:56:17.978Z,36.36
2023-08-29T15:58:48.690Z,36.78
2023-08-29T16:01:17.512Z,36.17
2023-08-29T16:03:46.298Z,36.10
2023-08-29T16:06:15.811Z,36.05
2023-08-29T16:08:44.846Z,35.98
2023-08-29T16:11:13.680Z,36.04
2023-08-29T16:13:42.399Z,36.23
2023-08-29T16:16:12.059Z,36.81
2023-08-29T16:18:40.822Z,36.25
2023-08-29T16:21:09.102Z,36.31
2023-08-29T16:23:37.816Z,36.43
2023-08-29T16:26:14.270Z,37.36
2023-08-29T16:28:43.379Z,36.47
2023-08-29T16:31:13.182Z,36.94
2023-08-29T16:33:41.847Z,36.32
2023-08-29T16:36:10.139Z,36.02
2023-08-29T16:38:38.678Z,35.71
2023-08-29T16:41:06.997Z,35.69
2023-08-29T16:43:35.900Z,35.69
2023-08-29T16:46:04.449Z,35.64
2023-08-29T16:48:34.627Z,36.38
2023-08-29T16:51:02.919Z,35.66
2023-08-29T16:53:31.677Z,35.65
2023-08-29T16:56:01.401Z,35.47
2023-08-29T16:58:29.892Z,35.66
2023-08-29T17:00:58.288Z,35.85
2023-08-29T17:03:27.054Z,35.75
2023-08-29T17:05:56.888Z,36.38
2023-08-29T17:08:26.150Z,36.17
2023-08-29T17:10:54.432Z,35.75
2023-08-29T17:13:23.064Z,35.75
2023-08-29T17:15:51.288Z,35.63
2023-08-29T17:18:20.091Z,35.74
2023-08-29T17:20:48.651Z,35.60
2023-08-29T17:23:18.903Z,36.24
2023-08-29T17:25:47.268Z,35.51
2023-08-29T17:28:16.388Z,35.65
2023-08-29T17:30:44.772Z,35.61
2023-08-29T17:33:13.368Z,35.57
2023-08-29T17:35:41.731Z,35.57
2023-08-29T17:38:10.507Z,35.52
2023-08-29T17:40:40.589Z,36.19
2023-08-29T17:43:09.502Z,35.50
2023-08-29T17:45:45.364Z,36.38
2023-08-29T17:48:13.996Z,35.55
2023-08-29T17:50:42.203Z,35.43
2023-08-29T17:53:10.707Z,35.51
2023-08-29T17:55:40.347Z,36.14
2023-08-29T17:58:13.604Z,35.41
2023-08-29T18:00:41.935Z,35.36
2023-08-29T18:03:10.506Z,35.35
2023-08-29T18:05:47.456Z,36.23
2023-08-29T18:08:16.374Z,35.24
2023-08-29T18:10:46.760Z,35.90
2023-08-29T18:13:17.948Z,35.25
2023-08-29T18:15:46.900Z,35.44
2023-08-29T18:18:20.503Z,35.94
2023-08-29T18:20:49.203Z,35.18
2023-08-29T18:23:17.761Z,35.27
2023-08-29T18:25:47.665Z,35.91
2023-08-29T18:28:16.361Z,35.43
2023-08-29T18:30:44.684Z,35.44
2023-08-29T18:33:13.318Z,35.57
2023-08-29T18:35:44.627Z,36.11
2023-08-29T18:38:13.787Z,35.86
2023-08-29T18:40:42.088Z,35.53
2023-08-29T18:43:14.020Z,36.09
2023-08-29T18:45:42.612Z,35.27
2023-08-29T18:48:11.469Z,35.28
2023-08-29T18:50:40.934Z,35.27
2023-08-29T18:53:09.775Z,35.19
2023-08-29T18:55:39.776Z,35.75
2023-08-29T18:58:08.609Z,35.03
2023-08-29T19:00:39.050Z,35.88
2023-08-29T19:09:36.424Z,24.87
2023-08-29T19:12:24.930Z,26.17
2023-08-29T19:14:53.856Z,26.00
2023-08-29T19:17:22.564Z,26.57
2023-08-29T19:19:51.100Z,26.84
2023-08-29T19:22:19.391Z,27.30
2023-08-29T19:24:48.314Z,27.33
2023-08-29T19:27:23.726Z,27.39
2023-08-29T19:29:56.818Z,27.58
2023-08-29T19:32:26.452Z,27.35
2023-08-29T19:34:55.342Z,27.46
2023-08-29T19:37:23.616Z,27.65
2023-08-29T19:39:52.269Z,27.93
2023-08-29T19:42:20.681Z,28.02
2023-08-29T19:44:49.254Z,27.89
2023-08-29T19:47:20.215Z,28.14
2023-08-29T19:49:48.734Z,29.08
2023-08-29T19:52:17.033Z,28.40
2023-08-29T19:54:45.786Z,28.46
2023-08-29T19:57:15.476Z,28.42
2023-08-29T19:59:44.082Z,28.24
2023-08-29T20:02:12.977Z,28.21
2023-08-29T20:04:43.980Z,28.68
2023-08-29T20:07:12.435Z,28.00
2023-08-29T20:09:41.360Z,28.13
2023-08-29T20:12:09.837Z,28.27
2023-08-29T20:14:38.511Z,28.34
2023-08-29T20:17:06.852Z,28.26
2023-08-29T20:19:35.802Z,28.53
2023-08-29T20:22:05.883Z,29.18
2023-08-29T20:24:36.245Z,29.05
2023-08-29T20:27:04.739Z,28.89
2023-08-29T20:29:33.477Z,28.93
2023-08-29T20:32:01.889Z,28.79
2023-08-29T20:34:30.929Z,28.83
2023-08-29T20:36:59.258Z,28.81
2023-08-29T20:39:29.506Z,29.21
2023-08-29T20:41:57.775Z,28.87
2023-08-29T20:44:26.498Z,28.63
2023-08-29T20:46:54.741Z,28.42
2023-08-29T20:49:23.381Z,28.19
2023-08-29T20:51:52.920Z,28.40
2023-08-29T20:54:22.109Z,28.60
2023-08-29T20:56:51.730Z,28.98
2023-08-29T20:59:20.328Z,28.47
2023-08-29T21:01:48.626Z,28.28
2023-08-29T21:04:17.361Z,28.31
2023-08-29T21:06:45.541Z,28.11
2023-08-29T21:09:14.346Z,28.07
2023-08-29T21:11:42.630Z,27.86
2023-08-29T21:14:12.644Z,28.57
2023-08-29T21:16:41.004Z,28.14
2023-08-29T21:19:10.233Z,28.24
2023-08-29T21:21:38.492Z,28.26
2023-08-29T21:24:08.086Z,28.48
2023-08-29T21:26:36.380Z,28.36
2023-08-29T21:29:05.814Z,28.31
2023-08-29T21:31:35.642Z,28.70
2023-08-29T21:34:04.609Z,28.44
2023-08-29T21:36:35.803Z,28.39
2023-08-29T21:39:04.869Z,28.53
2023-08-29T21:41:33.335Z,28.64
2023-08-29T21:44:01.977Z,28.76
2023-08-29T21:46:30.575Z,28.69
2023-08-29T21:49:00.648Z,29.39
2023-08-29T21:51:30.584Z,29.27
2023-08-29T21:53:59.192Z,28.97
2023-08-29T21:56:27.523Z,29.00
2023-08-29T21:58:56.231Z,29.15
2023-08-29T22:01:24.551Z,29.15
2023-08-29T22:03:53.223Z,29.26
2023-08-29T22:06:23.109Z,29.99
2023-08-29T22:08:51.722Z,29.14
2023-08-29T22:11:20.156Z,29.37
2023-08-29T22:13:48.898Z,29.31
2023-08-29T22:16:17.242Z,29.27
2023-08-29T22:18:46.156Z,29.13
2023-08-29T22:21:14.654Z,29.12
2023-08-29T22:23:47.617Z,29.72
2023-08-29T22:26:18.634Z,29.28
2023-08-29T22:28:47.110Z,29.35
2023-08-29T22:31:15.476Z,29.39
2023-08-29T22:33:45.452Z,29.23
2023-08-29T22:36:13.849Z,29.37
2023-08-29T22:38:43.342Z,29.24
2023-08-29T22:41:24.836Z,29.79
2023-08-29T22:44:01.555Z,29.13
2023-08-29T22:46:29.850Z,29.18
2023-08-29T22:48:59.006Z,29.42
2023-08-29T22:51:27.217Z,29.04
2023-08-29T22:53:58.822Z,29.02
2023-08-29T22:56:29.031Z,29.59
2023-08-29T22:58:57.643Z,29.24
2023-08-29T23:01:26.042Z,29.31
2023-08-29T23:03:54.834Z,29.33
2023-08-29T23:06:23.289Z,29.45
2023-08-29T23:08:52.229Z,29.34
2023-08-29T23:11:20.897Z,29.45
2023-08-29T23:13:51.453Z,29.85
2023-08-29T23:16:19.773Z,29.41
2023-08-29T23:18:48.462Z,29.49
2023-08-29T23:21:16.762Z,29.27
2023-08-29T23:23:46.369Z,29.31
2023-08-29T23:26:14.576Z,29.19
2023-08-29T23:28:43.033Z,29.02
2023-08-29T23:31:12.917Z,29.62
2023-08-29T23:33:51.178Z,29.99
2023-08-29T23:36:19.473Z,28.95
2023-08-29T23:38:49.750Z,29.31
2023-08-29T23:41:18.201Z,29.00
2023-08-29T23:43:46.781Z,28.95
2023-08-29T23:46:16.668Z,29.45
2023-08-29T23:48:45.250Z,28.84
2023-08-29T23:51:13.547Z,28.86
2023-08-29T23:53:42.228Z,29.02
2023-08-29T23:56:10.434Z,28.98
2023-08-29T23:58:39.014Z,28.87
